createdAt,value
2023-01-25T00:00:36.793Z,9.70
2023-01-25T00:03:07.332Z,12.90
2023-01-25T00:05:37.868Z,13.10
2023-01-25T00:08:09.002Z,12.70
2023-01-25T00:10:40.168Z,12.50
2023-01-25T00:13:10.616Z,13.90
2023-01-25T00:15:41.026Z,10.00
2023-01-25T00:18:11.701Z,10.50
2023-01-25T00:20:42.191Z,9.20
2023-01-25T00:23:12.767Z,10.00
2023-01-25T00:25:43.248Z,9.90
2023-01-25T00:28:13.705Z,10.10
2023-01-25T00:30:47.012Z,9.90
2023-01-25T00:36:41.014Z,10.90
2023-01-25T00:39:14.396Z,9.30
2023-01-25T00:41:45.394Z,8.80
2023-01-25T00:44:16.133Z,9.50
2023-01-25T00:46:46.607Z,8.70
2023-01-25T00:49:23.122Z,9.70
2023-01-25T00:51:54.624Z,9.50
2023-01-25T00:54:25.725Z,9.40
2023-01-25T00:56:56.641Z,10.20
2023-01-25T00:59:27.658Z,11.10
2023-01-25T01:01:58.776Z,10.20
2023-01-25T01:04:29.748Z,9.50
2023-01-25T01:07:00.219Z,8.30
2023-01-25T01:09:30.948Z,8.20
2023-01-25T01:12:01.818Z,7.30
2023-01-25T01:14:32.424Z,8.30
2023-01-25T01:17:03.049Z,8.40
2023-01-25T01:19:33.788Z,8.50
2023-01-25T01:22:04.523Z,8.10
2023-01-25T01:24:35.019Z,8.20
2023-01-25T01:27:07.010Z,7.50
2023-01-25T01:29:37.418Z,7.70
2023-01-25T01:32:08.598Z,8.80
2023-01-25T01:34:39.484Z,9.60
2023-01-25T01:37:10.657Z,8.90
2023-01-25T01:39:41.145Z,9.90
2023-01-25T01:42:12.132Z,9.20
2023-01-25T01:44:52.122Z,8.30
2023-01-25T01:47:27.135Z,9.30
2023-01-25T01:50:03.865Z,8.20
2023-01-25T01:52:38.857Z,8.20
2023-01-25T01:55:18.200Z,10.40
2023-01-25T01:57:52.667Z,9.50
2023-01-25T02:00:28.237Z,9.40
2023-01-25T02:02:59.872Z,9.50
2023-01-25T02:05:40.726Z,10.10
2023-01-25T02:08:14.812Z,10.80
2023-01-25T02:10:47.249Z,11.10
2023-01-25T02:15:48.816Z,9.20
2023-01-25T02:20:51.884Z,8.90
2023-01-25T02:23:30.721Z,10.70
2023-01-25T02:26:05.204Z,9.30
2023-01-25T02:28:41.648Z,10.90
2023-01-25T02:31:12.192Z,11.70
2023-01-25T02:33:42.883Z,10.30
2023-01-25T02:36:23.657Z,9.70
2023-01-25T02:38:58.707Z,10.20
2023-01-25T02:41:33.702Z,10.40
2023-01-25T02:44:06.703Z,9.20
2023-01-25T02:46:39.122Z,10.30
2023-01-25T02:49:11.286Z,9.30
2023-01-25T02:51:44.280Z,9.20
2023-01-25T02:54:17.852Z,10.20
2023-01-25T02:56:48.397Z,8.60
2023-01-25T02:59:19.348Z,7.50
2023-01-25T03:01:53.410Z,8.50
2023-01-25T03:04:24.081Z,8.80
2023-01-25T03:06:54.877Z,8.90
2023-01-25T03:09:25.364Z,11.30
2023-01-25T03:11:55.886Z,12.60
2023-01-25T03:14:26.592Z,12.70
2023-01-25T03:16:57.142Z,12.80
2023-01-25T03:19:29.221Z,12.70
2023-01-25T03:22:00.733Z,12.10
2023-01-25T03:24:31.593Z,12.30
2023-01-25T03:27:17.395Z,11.00
2023-01-25T03:29:51.320Z,10.30
2023-01-25T03:32:25.634Z,11.70
2023-01-25T03:34:56.299Z,10.50
2023-01-25T03:40:01.297Z,9.00
2023-01-25T03:42:31.825Z,9.20
2023-01-25T03:45:02.403Z,9.20
2023-01-25T03:47:33.023Z,8.40
2023-01-25T03:50:03.564Z,8.70
2023-01-25T03:52:39.056Z,9.50
2023-01-25T03:55:11.567Z,9.10
2023-01-25T03:57:45.036Z,9.80
2023-01-25T04:00:17.643Z,9.60
2023-01-25T04:02:50.346Z,10.70
2023-01-25T04:05:22.138Z,9.60
2023-01-25T04:07:52.731Z,10.60
2023-01-25T04:10:28.888Z,9.20
2023-01-25T04:12:59.685Z,11.10
2023-01-25T04:15:30.729Z,10.40
2023-01-25T04:18:04.225Z,10.10
2023-01-25T04:20:34.805Z,11.40
2023-01-25T04:23:07.126Z,10.10
2023-01-25T04:25:40.736Z,10.00
2023-01-25T04:28:15.266Z,10.50
2023-01-25T04:30:46.250Z,11.80
2023-01-25T04:33:18.364Z,11.30
2023-01-25T04:35:50.090Z,11.60
2023-01-25T04:38:22.110Z,12.00
2023-01-25T04:40:54.916Z,11.50
2023-01-25T04:43:27.508Z,10.50
2023-01-25T04:46:04.586Z,9.30
2023-01-25T04:48:35.895Z,17.50
2023-01-25T04:51:09.611Z,26.00
2023-01-25T04:53:40.319Z,12.30
2023-01-25T04:56:11.109Z,9.40
2023-01-25T04:58:51.807Z,9.30
2023-01-25T05:01:22.689Z,10.00
2023-01-25T05:03:54.064Z,9.70
2023-01-25T05:06:41.237Z,9.80
2023-01-25T05:09:11.825Z,9.90
2023-01-25T05:11:43.172Z,10.50
2023-01-25T05:14:28.104Z,10.00
2023-01-25T05:16:59.085Z,10.60
2023-01-25T05:19:29.623Z,10.10
2023-01-25T05:22:03.752Z,11.50
2023-01-25T05:24:41.716Z,11.70
2023-01-25T05:27:14.727Z,11.30
2023-01-25T05:30:10.806Z,10.10
2023-01-25T05:32:51.133Z,10.10
2023-01-25T05:35:22.136Z,9.70
2023-01-25T05:37:56.803Z,9.70
2023-01-25T05:40:27.877Z,10.70
2023-01-25T05:43:00.955Z,10.30
2023-01-25T05:45:32.923Z,11.20
2023-01-25T05:48:04.142Z,14.00
2023-01-25T05:50:34.607Z,13.80
2023-01-25T05:53:08.774Z,12.30
2023-01-25T05:55:39.595Z,12.10
2023-01-25T05:58:13.195Z,11.20
2023-01-25T06:00:43.636Z,12.50
2023-01-25T06:03:17.574Z,11.40
2023-01-25T06:05:48.347Z,11.40
2023-01-25T06:08:19.121Z,11.90
2023-01-25T06:10:53.022Z,12.20
2023-01-25T06:13:23.520Z,11.80
2023-01-25T06:15:57.525Z,11.20
2023-01-25T06:18:46.831Z,11.00
2023-01-25T06:21:36.994Z,11.60
2023-01-25T06:24:08.770Z,11.80
2023-01-25T06:26:39.287Z,12.10
2023-01-25T06:29:09.817Z,11.70
2023-01-25T06:31:40.424Z,11.60
2023-01-25T06:34:10.966Z,13.10
2023-01-25T06:36:41.550Z,11.40
2023-01-25T06:39:13.095Z,12.60
2023-01-25T06:41:43.518Z,12.10
2023-01-25T06:44:14.085Z,12.80
2023-01-25T06:46:44.690Z,12.00
2023-01-25T06:49:16.718Z,12.00
2023-01-25T06:51:47.234Z,12.50
2023-01-25T06:54:17.705Z,11.00
2023-01-25T06:56:48.147Z,9.80
2023-01-25T06:59:18.661Z,11.20
2023-01-25T07:01:50.383Z,11.60
2023-01-25T07:04:20.945Z,13.90
2023-01-25T07:06:51.463Z,13.50
2023-01-25T07:09:24.545Z,14.60
2023-01-25T07:11:55.206Z,12.60
2023-01-25T07:14:25.721Z,14.20
2023-01-25T07:16:56.113Z,14.40
2023-01-25T07:19:26.695Z,15.00
2023-01-25T07:21:57.450Z,13.00
2023-01-25T07:24:29.609Z,11.70
2023-01-25T07:27:00.195Z,10.70
2023-01-25T07:29:30.947Z,11.90
2023-01-25T07:32:02.215Z,10.80
2023-01-25T07:34:32.666Z,11.40
2023-01-25T07:37:03.248Z,10.80
2023-01-25T07:39:33.683Z,10.50
2023-01-25T07:42:04.357Z,11.00
2023-01-25T07:44:36.408Z,10.50
2023-01-25T07:47:16.350Z,11.00
2023-01-25T07:49:46.845Z,10.70
2023-01-25T07:52:17.734Z,11.20
2023-01-25T07:54:49.987Z,11.00
2023-01-25T07:57:20.505Z,10.30
2023-01-25T07:59:51.001Z,10.10
2023-01-25T08:02:21.672Z,12.90
2023-01-25T08:04:52.522Z,10.80
2023-01-25T08:07:23.665Z,9.80
2023-01-25T08:09:54.225Z,9.10
2023-01-25T08:12:25.873Z,9.60
2023-01-25T08:14:56.320Z,10.40
2023-01-25T08:17:31.520Z,9.50
2023-01-25T08:20:03.050Z,10.60
2023-01-25T08:22:33.462Z,8.80
2023-01-25T08:25:04.242Z,9.30
2023-01-25T08:27:34.683Z,9.00
2023-01-25T08:30:05.886Z,8.10
2023-01-25T08:32:38.239Z,8.00
2023-01-25T08:35:11.182Z,8.20
2023-01-25T08:37:41.869Z,8.70
2023-01-25T08:40:14.920Z,7.50
2023-01-25T08:42:45.540Z,7.50
2023-01-25T08:45:16.164Z,7.60
2023-01-25T08:47:46.678Z,9.40
2023-01-25T08:50:17.835Z,15.40
2023-01-25T08:52:48.259Z,10.20
2023-01-25T08:55:18.777Z,9.10
2023-01-25T08:57:49.413Z,8.40
2023-01-25T09:00:22.150Z,9.40
2023-01-25T09:02:52.723Z,9.70
2023-01-25T09:05:23.178Z,8.10
2023-01-25T09:07:53.590Z,7.00
2023-01-25T09:10:24.070Z,7.60
2023-01-25T09:12:54.516Z,8.80
2023-01-25T09:15:25.451Z,8.70
2023-01-25T09:17:57.050Z,9.40
2023-01-25T09:20:27.952Z,10.50
2023-01-25T09:22:59.128Z,8.60
2023-01-25T09:25:29.746Z,7.70
2023-01-25T09:28:00.205Z,7.40
2023-01-25T09:30:45.562Z,7.90
2023-01-25T09:33:25.281Z,8.70
2023-01-25T09:35:55.823Z,8.60
2023-01-25T09:38:26.780Z,8.80
2023-01-25T09:41:11.821Z,9.00
2023-01-25T09:44:14.575Z,8.30
2023-01-25T09:46:49.090Z,7.70
2023-01-25T09:49:32.472Z,8.80
2023-01-25T09:52:20.699Z,10.30
2023-01-25T09:54:51.463Z,10.40
2023-01-25T09:57:27.816Z,9.90
2023-01-25T10:00:02.080Z,9.80
2023-01-25T10:02:48.867Z,10.50
2023-01-25T10:05:22.928Z,9.00
2023-01-25T10:08:03.534Z,9.60
2023-01-25T10:10:39.591Z,9.10
2023-01-25T10:13:13.414Z,8.80
2023-01-25T10:15:49.529Z,8.90
2023-01-25T10:18:28.479Z,9.00
2023-01-25T10:21:02.869Z,10.40
2023-01-25T10:24:08.493Z,9.10
2023-01-25T10:26:42.999Z,8.30
2023-01-25T10:29:19.761Z,9.10
2023-01-25T10:31:53.494Z,8.80
2023-01-25T10:34:27.571Z,8.60
2023-01-25T10:37:02.284Z,9.20
2023-01-25T10:39:40.046Z,9.50
2023-01-25T10:42:16.453Z,8.20
2023-01-25T10:44:47.070Z,8.00
2023-01-25T10:47:20.973Z,9.10
2023-01-25T10:49:54.820Z,9.10
2023-01-25T10:52:27.495Z,8.50
2023-01-25T10:55:15.899Z,7.80
2023-01-25T10:57:50.149Z,7.30
2023-01-25T11:00:30.576Z,7.50
2023-01-25T11:03:01.431Z,7.70
2023-01-25T11:05:35.249Z,8.40
2023-01-25T11:08:25.061Z,8.50
2023-01-25T11:10:56.498Z,11.30
2023-01-25T11:13:28.814Z,9.60
2023-01-25T11:16:24.437Z,8.50
2023-01-25T11:18:57.291Z,8.90
2023-01-25T11:21:29.992Z,13.00
2023-01-25T11:24:19.111Z,11.60
2023-01-25T11:26:49.565Z,7.70
2023-01-25T11:29:22.124Z,7.00
2023-01-25T11:31:55.414Z,6.60
2023-01-25T11:34:30.620Z,7.50
2023-01-25T11:37:30.665Z,6.60
2023-01-25T11:40:16.063Z,7.70
2023-01-25T11:42:58.572Z,7.40
2023-01-25T11:46:05.288Z,6.30
2023-01-25T11:48:52.676Z,6.70
2023-01-25T11:51:28.471Z,7.70
2023-01-25T11:54:25.895Z,7.60
2023-01-25T11:57:01.633Z,6.40
2023-01-25T11:59:52.049Z,7.60
2023-01-25T12:03:06.616Z,8.00
2023-01-25T12:05:51.294Z,6.60
2023-01-25T12:08:39.255Z,6.80
2023-01-25T12:11:17.512Z,6.70
2023-01-25T12:14:02.192Z,6.40
2023-01-25T12:16:48.272Z,8.20
2023-01-25T12:19:30.970Z,7.20
2023-01-25T12:22:27.399Z,8.00
2023-01-25T12:25:04.827Z,7.40
2023-01-25T12:27:54.233Z,7.40
2023-01-25T12:30:34.960Z,6.90
2023-01-25T12:33:14.961Z,7.20
2023-01-25T12:35:50.881Z,7.70
2023-01-25T12:38:28.573Z,8.20
2023-01-25T12:41:04.883Z,7.10
2023-01-25T12:43:41.122Z,7.50
2023-01-25T12:46:25.880Z,7.40
2023-01-25T12:49:00.603Z,7.40
2023-01-25T12:51:38.134Z,7.50
2023-01-25T12:54:18.598Z,7.30
2023-01-25T12:56:58.518Z,7.50
2023-01-25T12:59:39.073Z,6.70
2023-01-25T13:02:33.470Z,7.60
2023-01-25T13:05:13.506Z,7.20
2023-01-25T13:07:54.663Z,7.30
2023-01-25T13:10:32.092Z,6.70
2023-01-25T13:13:05.199Z,8.10
2023-01-25T13:15:43.939Z,8.40
2023-01-25T13:18:39.726Z,9.40
2023-01-25T13:21:34.507Z,7.40
2023-01-25T13:24:19.038Z,6.40
2023-01-25T13:27:04.260Z,7.10
2023-01-25T13:29:58.920Z,7.50
2023-01-25T13:33:04.377Z,7.80
2023-01-25T13:35:37.552Z,7.80
2023-01-25T13:38:33.516Z,7.40
2023-01-25T13:41:20.759Z,8.50
2023-01-25T13:44:14.617Z,7.30
2023-01-25T13:46:45.079Z,7.20
2023-01-25T13:49:25.722Z,7.80
2023-01-25T13:51:57.146Z,8.40
2023-01-25T13:54:27.897Z,8.20
2023-01-25T13:57:12.240Z,7.80
2023-01-25T14:02:20.020Z,7.40
2023-01-25T14:04:52.450Z,8.70
2023-01-25T14:07:27.980Z,8.00
2023-01-25T14:09:59.341Z,8.00
2023-01-25T14:12:37.856Z,7.10
2023-01-25T14:15:21.810Z,7.70
2023-01-25T14:18:16.485Z,7.70
2023-01-25T14:20:48.544Z,7.90
2023-01-25T14:23:27.303Z,7.60
2023-01-25T14:28:30.398Z,6.60
2023-01-25T14:31:02.346Z,8.20
2023-01-25T14:33:38.215Z,9.20
2023-01-25T14:36:24.541Z,8.30
2023-01-25T14:38:56.635Z,8.30
2023-01-25T14:41:31.770Z,8.70
2023-01-25T14:44:06.436Z,8.40
2023-01-25T14:46:38.602Z,7.50
2023-01-25T14:49:27.559Z,8.70
2023-01-25T14:52:04.556Z,8.70
2023-01-25T14:54:37.552Z,7.90
2023-01-25T14:57:24.246Z,7.10
2023-01-25T14:59:56.912Z,8.00
2023-01-25T15:02:39.223Z,8.10
2023-01-25T15:05:21.304Z,8.80
2023-01-25T15:07:53.857Z,8.80
2023-01-25T15:10:27.048Z,7.80
2023-01-25T15:13:13.168Z,8.10
2023-01-25T15:15:57.723Z,8.00
2023-01-25T15:18:46.291Z,8.10
2023-01-25T15:21:18.569Z,7.30
2023-01-25T15:23:51.177Z,8.30
2023-01-25T15:26:23.787Z,7.90
2023-01-25T15:28:56.445Z,8.20
2023-01-25T15:31:29.781Z,8.50
2023-01-25T15:34:01.700Z,8.10
2023-01-25T15:36:33.948Z,8.20
2023-01-25T15:39:04.637Z,7.60
2023-01-25T15:41:35.166Z,7.90
2023-01-25T15:44:05.777Z,8.50
2023-01-25T15:46:37.741Z,8.20
2023-01-25T15:49:09.972Z,8.00
2023-01-25T15:51:40.507Z,8.40
2023-01-25T15:54:11.340Z,8.20
2023-01-25T15:56:44.340Z,8.90
2023-01-25T15:59:19.270Z,8.50
2023-01-25T16:01:49.740Z,8.90
2023-01-25T16:04:20.420Z,8.90
2023-01-25T16:06:53.600Z,9.40
2023-01-25T16:09:26.800Z,9.30
2023-01-25T16:11:59.287Z,8.60
2023-01-25T16:14:31.550Z,8.70
2023-01-25T16:17:05.677Z,8.90
2023-01-25T16:19:37.425Z,7.90
2023-01-25T16:22:07.869Z,7.30
2023-01-25T16:24:39.650Z,8.20
2023-01-25T16:27:20.473Z,9.40
2023-01-25T16:29:50.966Z,8.00
2023-01-25T16:32:21.506Z,8.30
2023-01-25T16:34:51.937Z,8.10
2023-01-25T16:37:22.503Z,8.50
2023-01-25T16:39:53.855Z,8.80
2023-01-25T16:42:24.253Z,8.00
2023-01-25T16:44:54.720Z,9.30
2023-01-25T16:47:26.937Z,8.60
2023-01-25T16:49:58.395Z,8.50
2023-01-25T16:52:29.670Z,8.30
2023-01-25T16:55:00.685Z,8.10
2023-01-25T16:57:31.135Z,8.20
2023-01-25T17:00:06.958Z,7.80
2023-01-25T17:02:40.079Z,7.50
2023-01-25T17:05:13.669Z,6.50
2023-01-25T17:07:44.096Z,7.70
2023-01-25T17:10:14.850Z,7.80
2023-01-25T17:12:45.696Z,8.30
2023-01-25T17:15:17.949Z,8.20
2023-01-25T17:17:48.405Z,8.20
2023-01-25T17:20:19.608Z,8.30
2023-01-25T17:22:51.560Z,8.20
2023-01-25T17:25:22.343Z,8.60
2023-01-25T17:27:52.810Z,8.40
2023-01-25T17:30:23.332Z,9.30
2023-01-25T17:32:54.058Z,8.50
2023-01-25T17:35:24.521Z,9.40
2023-01-25T17:37:57.544Z,9.00
2023-01-25T17:40:28.019Z,8.50
2023-01-25T17:42:58.404Z,8.60
2023-01-25T17:45:29.177Z,8.70
2023-01-25T17:47:59.621Z,8.80
2023-01-25T17:50:30.124Z,9.30
2023-01-25T17:53:00.573Z,9.40
2023-01-25T17:55:31.317Z,9.70
2023-01-25T17:58:01.735Z,9.00
2023-01-25T18:00:33.571Z,9.90
2023-01-25T18:03:04.072Z,10.00
2023-01-25T18:05:34.547Z,10.00
2023-01-25T18:08:05.830Z,9.70
2023-01-25T18:10:36.377Z,10.20
2023-01-25T18:13:06.891Z,8.70
2023-01-25T18:15:37.343Z,8.80
2023-01-25T18:18:08.456Z,11.10
2023-01-25T18:20:38.882Z,11.60
2023-01-25T18:23:09.330Z,10.90
2023-01-25T18:25:39.842Z,10.10
2023-01-25T18:28:15.105Z,11.40
2023-01-25T18:30:53.575Z,10.00
2023-01-25T18:33:24.214Z,10.20
2023-01-25T18:35:55.321Z,10.40
2023-01-25T18:38:26.163Z,9.30
2023-01-25T18:40:57.497Z,8.80
2023-01-25T18:43:29.079Z,9.50
2023-01-25T18:46:01.011Z,10.00
2023-01-25T18:48:31.665Z,8.70
2023-01-25T18:51:07.737Z,9.40
2023-01-25T18:53:40.047Z,9.90
2023-01-25T18:56:14.172Z,10.80
2023-01-25T18:58:45.550Z,8.30
2023-01-25T19:01:17.943Z,10.40
2023-01-25T19:06:18.482Z,8.30
2023-01-25T19:08:54.397Z,8.90
2023-01-25T19:11:26.769Z,9.90
2023-01-25T19:16:26.866Z,9.60
2023-01-25T19:18:57.742Z,10.00
2023-01-25T19:21:28.933Z,9.80
2023-01-25T19:23:59.773Z,11.50
2023-01-25T19:26:30.282Z,10.40
2023-01-25T19:29:00.785Z,11.20
2023-01-25T19:31:32.723Z,10.40
2023-01-25T19:34:05.513Z,11.20
2023-01-25T19:36:38.957Z,11.50
2023-01-25T19:39:10.189Z,10.20
2023-01-25T19:41:40.711Z,11.90
2023-01-25T19:44:14.165Z,10.30
2023-01-25T19:46:44.936Z,11.00
2023-01-25T19:49:15.885Z,10.00
2023-01-25T19:51:53.064Z,11.30
2023-01-25T19:54:24.485Z,9.90
2023-01-25T19:56:56.176Z,12.60
2023-01-25T19:59:28.472Z,11.30
2023-01-25T20:01:58.999Z,10.80
2023-01-25T20:04:29.730Z,12.90
2023-01-25T20:07:00.184Z,12.20
2023-01-25T20:09:30.836Z,12.70
2023-01-25T20:12:03.131Z,12.50
2023-01-25T20:17:02.895Z,12.30
2023-01-25T20:19:35.257Z,12.00
2023-01-25T20:24:35.239Z,12.90
2023-01-25T20:27:07.463Z,12.80
2023-01-25T20:29:37.931Z,14.20
2023-01-25T20:32:11.143Z,14.00
2023-01-25T20:34:43.291Z,16.00
2023-01-25T20:37:13.710Z,16.10
2023-01-25T20:39:44.253Z,14.80
2023-01-25T20:42:14.729Z,16.70
2023-01-25T20:44:45.185Z,15.30
2023-01-25T20:47:15.588Z,14.20
2023-01-25T20:49:45.982Z,14.80
2023-01-25T20:52:16.445Z,13.90
2023-01-25T20:54:46.891Z,14.30
2023-01-25T20:57:17.314Z,16.90
2023-01-25T20:59:47.793Z,16.20
2023-01-25T21:02:18.322Z,21.40
2023-01-25T21:04:48.844Z,15.80
2023-01-25T21:07:19.296Z,15.70
2023-01-25T21:09:49.789Z,17.00
2023-01-25T21:12:20.257Z,15.40
2023-01-25T21:14:51.469Z,16.80
2023-01-25T21:17:22.033Z,15.80
2023-01-25T21:19:52.482Z,14.30
2023-01-25T21:22:22.998Z,14.60
2023-01-25T21:24:53.592Z,14.70
2023-01-25T21:27:25.040Z,15.70
2023-01-25T21:29:55.500Z,13.50
2023-01-25T21:32:26.124Z,12.50
2023-01-25T21:34:56.592Z,14.60
2023-01-25T21:37:27.188Z,14.80
2023-01-25T21:39:57.652Z,14.60
2023-01-25T21:42:28.157Z,16.80
2023-01-25T21:45:16.292Z,15.90
2023-01-25T21:47:46.817Z,13.60
2023-01-25T21:50:35.497Z,15.10
2023-01-25T21:53:05.972Z,12.90
2023-01-25T21:55:36.423Z,13.30
2023-01-25T21:58:06.873Z,15.20
2023-01-25T22:00:37.527Z,16.10
2023-01-25T22:03:07.939Z,15.00
2023-01-25T22:05:38.418Z,14.10
2023-01-25T22:08:09.396Z,17.00
2023-01-25T22:10:40.225Z,18.70
2023-01-25T22:13:13.064Z,15.40
2023-01-25T22:15:43.720Z,15.70
2023-01-25T22:18:14.339Z,12.40
2023-01-25T22:20:44.765Z,13.20
2023-01-25T22:23:15.215Z,11.50
2023-01-25T22:25:47.496Z,12.00
2023-01-25T22:28:20.579Z,12.40
2023-01-25T22:30:51.673Z,11.10
2023-01-25T22:33:22.520Z,11.10
2023-01-25T22:35:53.061Z,11.80
2023-01-25T22:38:23.500Z,11.40
2023-01-25T22:40:56.408Z,11.90
2023-01-25T22:43:26.973Z,11.10
2023-01-25T22:45:57.408Z,12.10
2023-01-25T22:48:28.512Z,10.50
2023-01-25T22:51:04.606Z,10.90
2023-01-25T22:53:36.059Z,9.70
2023-01-25T22:56:09.007Z,10.20
2023-01-25T22:58:43.315Z,11.30
2023-01-25T23:01:15.581Z,11.60
2023-01-25T23:03:46.157Z,10.90
2023-01-25T23:06:19.210Z,8.60
2023-01-25T23:08:50.867Z,9.00
2023-01-25T23:11:24.673Z,11.30
2023-01-25T23:14:13.349Z,10.40
2023-01-25T23:16:45.305Z,11.00
2023-01-25T23:19:15.934Z,9.80
2023-01-25T23:21:46.440Z,10.30
2023-01-25T23:24:16.858Z,11.50
2023-01-25T23:26:47.295Z,10.40
2023-01-25T23:29:17.759Z,10.90
2023-01-25T23:31:48.282Z,10.90
2023-01-25T23:34:18.850Z,11.00
2023-01-25T23:36:49.291Z,11.70
2023-01-25T23:39:20.967Z,12.10
2023-01-25T23:41:52.526Z,11.50
2023-01-25T23:44:22.952Z,12.20
2023-01-25T23:46:53.580Z,11.90
2023-01-25T23:49:24.129Z,11.60
2023-01-25T23:51:55.012Z,11.30
2023-01-25T23:54:27.017Z,11.60
2023-01-25T23:56:57.456Z,11.80
2023-01-25T23:59:27.870Z,11.10
